createdAt,value
2023-05-13T00:01:54.345Z,17.20
2023-05-13T00:04:22.498Z,17.20
2023-05-13T00:06:50.757Z,17.10
2023-05-13T00:09:22.602Z,17.20
2023-05-13T00:11:50.807Z,17.20
2023-05-13T00:14:19.180Z,17.00
2023-05-13T00:16:47.669Z,17.10
2023-05-13T00:19:16.120Z,17.10
2023-05-13T00:21:44.341Z,17.00
2023-05-13T00:24:12.682Z,17.10
2023-05-13T00:26:42.369Z,17.10
2023-05-13T00:29:10.749Z,17.20
2023-05-13T00:31:38.809Z,17.10
2023-05-13T00:34:07.219Z,17.10
2023-05-13T00:36:35.370Z,17.10
2023-05-13T00:39:03.964Z,17.10
2023-05-13T00:41:32.123Z,17.10
2023-05-13T00:44:01.919Z,17.10
2023-05-13T00:46:36.018Z,17.20
2023-05-13T00:49:05.659Z,17.20
2023-05-13T00:51:34.080Z,17.20
2023-05-13T00:54:03.443Z,17.10
2023-05-13T00:56:31.852Z,17.10
2023-05-13T00:59:01.587Z,17.10
2023-05-13T01:01:38.355Z,17.10
2023-05-13T01:04:16.297Z,17.20
2023-05-13T01:06:58.242Z,17.10
2023-05-13T01:09:35.545Z,17.30
2023-05-13T01:12:09.641Z,17.10
2023-05-13T01:14:46.208Z,17.00
2023-05-13T01:17:19.448Z,16.90
2023-05-13T01:19:50.846Z,16.90
2023-05-13T01:22:20.405Z,17.10
2023-05-13T01:24:50.758Z,17.00
2023-05-13T01:27:18.957Z,16.90
2023-05-13T01:29:47.935Z,16.90
2023-05-13T01:32:17.085Z,16.60
2023-05-13T01:34:46.353Z,16.80
2023-05-13T01:37:14.832Z,16.70
2023-05-13T01:39:44.504Z,16.60
2023-05-13T01:42:12.696Z,16.60
2023-05-13T01:44:40.894Z,16.60
2023-05-13T01:47:09.172Z,16.50
2023-05-13T01:49:37.270Z,16.60
2023-05-13T01:52:05.989Z,16.40
2023-05-13T01:54:34.201Z,16.30
2023-05-13T01:57:03.798Z,16.50
2023-05-13T01:59:32.521Z,16.50
2023-05-13T02:02:00.921Z,16.20
2023-05-13T02:04:29.258Z,16.10
2023-05-13T02:06:57.750Z,15.90
2023-05-13T02:09:25.884Z,15.90
2023-05-13T02:11:54.157Z,16.00
2023-05-13T02:14:23.669Z,15.90
2023-05-13T02:16:52.029Z,16.00
2023-05-13T02:19:20.873Z,15.90
2023-05-13T02:21:49.005Z,15.70
2023-05-13T02:24:18.004Z,15.60
2023-05-13T02:26:48.840Z,15.50
2023-05-13T02:29:17.167Z,15.10
2023-05-13T02:31:46.791Z,15.60
2023-05-13T02:34:15.296Z,15.30
2023-05-13T02:36:46.612Z,15.20
2023-05-13T02:39:14.889Z,15.20
2023-05-13T02:41:44.645Z,15.20
2023-05-13T02:44:13.049Z,14.90
2023-05-13T02:46:41.275Z,14.80
2023-05-13T02:49:11.136Z,15.80
2023-05-13T02:51:39.403Z,14.70
2023-05-13T02:54:08.136Z,14.50
2023-05-13T02:56:36.383Z,14.60
2023-05-13T02:59:04.494Z,15.00
2023-05-13T03:01:32.655Z,14.90
2023-05-13T03:04:01.124Z,14.50
2023-05-13T03:06:31.752Z,14.40
2023-05-13T03:09:00.116Z,14.10
2023-05-13T03:11:28.293Z,14.30
2023-05-13T03:13:59.477Z,14.80
2023-05-13T03:16:27.616Z,14.40
2023-05-13T03:18:56.053Z,14.40
2023-05-13T03:21:26.233Z,14.30
2023-05-13T03:23:55.808Z,14.30
2023-05-13T03:26:24.139Z,15.50
2023-05-13T03:28:52.359Z,14.10
2023-05-13T03:31:20.732Z,14.10
2023-05-13T03:33:48.984Z,14.10
2023-05-13T03:36:17.333Z,14.00
2023-05-13T03:38:45.463Z,14.00
2023-05-13T03:41:17.658Z,14.00
2023-05-13T03:43:46.076Z,13.40
2023-05-13T03:46:14.525Z,15.30
2023-05-13T03:48:42.774Z,14.10
2023-05-13T03:51:11.036Z,13.80
2023-05-13T03:53:39.252Z,13.80
2023-05-13T03:56:07.870Z,13.70
2023-05-13T03:58:40.277Z,13.70
2023-05-13T04:01:08.973Z,13.80
2023-05-13T04:03:37.270Z,13.90
2023-05-13T04:06:08.401Z,13.90
2023-05-13T04:08:36.647Z,13.50
2023-05-13T04:11:05.086Z,13.40
2023-05-13T04:13:35.907Z,13.40
2023-05-13T04:16:08.764Z,13.10
2023-05-13T04:18:37.209Z,13.40
2023-05-13T04:21:08.084Z,13.60
2023-05-13T04:23:37.125Z,12.80
2023-05-13T04:26:06.609Z,13.40
2023-05-13T04:28:35.050Z,13.70
2023-05-13T04:31:03.858Z,13.80
2023-05-13T04:33:35.066Z,13.40
2023-05-13T04:36:03.617Z,13.90
2023-05-13T04:38:32.984Z,13.40
2023-05-13T04:41:01.511Z,13.40
2023-05-13T04:43:32.958Z,13.30
2023-05-13T04:46:01.152Z,13.50
2023-05-13T04:48:29.485Z,13.60
2023-05-13T04:50:59.809Z,14.30
2023-05-13T04:53:28.541Z,13.60
2023-05-13T04:56:00.930Z,13.70
2023-05-13T04:58:29.696Z,14.00
2023-05-13T05:00:57.983Z,14.10
2023-05-13T05:03:26.321Z,13.90
2023-05-13T05:05:54.486Z,13.80
2023-05-13T05:08:24.168Z,14.50
2023-05-13T05:10:52.504Z,14.50
2023-05-13T05:13:20.677Z,15.30
2023-05-13T05:15:49.144Z,14.10
2023-05-13T05:18:17.368Z,15.30
2023-05-13T05:20:45.753Z,14.30
2023-05-13T05:23:13.998Z,14.20
2023-05-13T05:25:43.725Z,14.30
2023-05-13T05:28:12.467Z,15.10
2023-05-13T05:30:43.095Z,15.70
2023-05-13T05:33:11.135Z,15.90
2023-05-13T05:35:41.902Z,14.90
2023-05-13T05:38:10.096Z,14.80
2023-05-13T05:40:41.446Z,15.50
2023-05-13T05:43:12.198Z,14.70
2023-05-13T05:45:40.959Z,14.80
2023-05-13T05:48:09.188Z,14.60
2023-05-13T05:50:38.006Z,15.20
2023-05-13T05:53:07.132Z,14.80
2023-05-13T05:55:36.191Z,15.10
2023-05-13T05:58:07.811Z,15.00
2023-05-13T06:00:37.616Z,14.90
2023-05-13T06:03:06.295Z,15.70
2023-05-13T06:05:35.361Z,15.50
2023-05-13T06:08:03.837Z,15.10
2023-05-13T06:10:32.164Z,15.50
2023-05-13T06:13:03.546Z,15.20
2023-05-13T06:15:31.932Z,15.20
2023-05-13T06:18:04.984Z,16.10
2023-05-13T06:20:33.991Z,15.30
2023-05-13T06:23:02.368Z,15.40
2023-05-13T06:25:30.719Z,15.50
2023-05-13T06:28:03.116Z,15.90
2023-05-13T06:30:35.334Z,15.50
2023-05-13T06:33:05.419Z,15.50
2023-05-13T06:35:33.626Z,15.60
2023-05-13T06:38:11.819Z,15.80
2023-05-13T06:40:40.227Z,15.70
2023-05-13T06:43:16.643Z,15.80
2023-05-13T06:46:02.068Z,15.80
2023-05-13T06:48:34.961Z,16.30
2023-05-13T06:51:11.527Z,16.00
2023-05-13T06:53:39.809Z,16.20
2023-05-13T06:56:08.431Z,16.10
2023-05-13T06:58:36.439Z,16.20
2023-05-13T07:01:04.842Z,16.60
2023-05-13T07:03:37.753Z,16.30
2023-05-13T07:06:06.359Z,16.40
2023-05-13T07:08:37.012Z,16.40
2023-05-13T07:11:05.637Z,16.50
2023-05-13T07:13:35.001Z,16.60
2023-05-13T07:16:03.525Z,16.70
2023-05-13T07:18:31.837Z,17.40
2023-05-13T07:21:01.798Z,16.60
2023-05-13T07:23:30.092Z,17.30
2023-05-13T07:25:58.294Z,16.90
2023-05-13T07:28:26.451Z,17.70
2023-05-13T07:30:55.113Z,16.90
2023-05-13T07:33:23.268Z,17.10
2023-05-13T07:35:51.398Z,17.10
2023-05-13T07:38:21.366Z,17.10
2023-05-13T07:40:49.713Z,17.20
2023-05-13T07:43:23.843Z,17.20
2023-05-13T07:45:52.702Z,17.40
2023-05-13T07:48:20.915Z,17.90
2023-05-13T07:50:49.216Z,17.40
2023-05-13T07:53:19.621Z,17.40
2023-05-13T07:55:49.939Z,17.50
2023-05-13T07:58:18.811Z,17.60
2023-05-13T08:00:47.053Z,17.70
2023-05-13T08:03:20.517Z,17.80
2023-05-13T08:05:49.483Z,17.90
2023-05-13T08:08:18.163Z,18.20
2023-05-13T08:10:46.458Z,18.30
2023-05-13T08:13:16.962Z,18.00
2023-05-13T08:15:45.292Z,18.70
2023-05-13T08:18:13.930Z,18.20
2023-05-13T08:20:42.441Z,18.30
2023-05-13T08:23:10.989Z,18.30
2023-05-13T08:25:39.093Z,18.30
2023-05-13T08:28:07.289Z,18.70
2023-05-13T08:30:36.809Z,18.60
2023-05-13T08:33:05.276Z,18.60
2023-05-13T08:35:36.171Z,18.80
2023-05-13T08:38:07.666Z,18.90
2023-05-13T08:40:36.547Z,19.00
2023-05-13T08:43:09.058Z,18.80
2023-05-13T08:45:40.550Z,19.00
2023-05-13T08:48:11.334Z,19.10
2023-05-13T08:50:44.920Z,19.10
2023-05-13T08:53:20.062Z,19.20
2023-05-13T08:55:49.823Z,19.20
2023-05-13T08:58:20.077Z,19.20
2023-05-13T09:00:53.686Z,19.30
2023-05-13T09:03:22.660Z,19.40
2023-05-13T09:05:50.940Z,19.50
2023-05-13T09:08:19.431Z,19.60
2023-05-13T09:10:48.296Z,19.70
2023-05-13T09:13:19.342Z,19.80
2023-05-13T09:15:53.386Z,19.80
2023-05-13T09:18:23.359Z,19.70
2023-05-13T09:20:54.897Z,20.00
2023-05-13T09:23:25.088Z,20.20
2023-05-13T09:25:53.436Z,20.30
2023-05-13T09:28:23.754Z,20.40
2023-05-13T09:30:57.066Z,20.40
2023-05-13T09:33:31.570Z,20.50
2023-05-13T09:36:00.129Z,20.60
2023-05-13T09:38:31.733Z,20.70
2023-05-13T09:41:01.089Z,20.80
2023-05-13T09:43:32.452Z,20.90
2023-05-13T09:46:03.558Z,21.00
2023-05-13T09:48:35.049Z,21.10
2023-05-13T09:51:03.358Z,21.00
2023-05-13T09:53:33.559Z,21.10
2023-05-13T09:56:02.098Z,21.20
2023-05-13T09:58:31.223Z,21.30
2023-05-13T10:01:05.735Z,21.30
2023-05-13T10:03:39.180Z,21.40
2023-05-13T10:06:16.955Z,21.50
2023-05-13T10:08:47.845Z,21.70
2023-05-13T10:11:18.062Z,21.70
2023-05-13T10:13:51.154Z,21.90
2023-05-13T10:16:20.236Z,22.00
2023-05-13T10:18:50.415Z,22.20
2023-05-13T10:21:24.398Z,22.20
2023-05-13T10:23:53.187Z,22.30
2023-05-13T10:26:22.487Z,22.20
2023-05-13T10:28:51.219Z,22.20
2023-05-13T10:31:19.413Z,22.20
2023-05-13T10:33:49.539Z,22.30
2023-05-13T10:36:42.694Z,22.30
2023-05-13T10:39:35.161Z,22.50
2023-05-13T10:42:42.783Z,22.50
2023-05-13T10:45:11.719Z,22.70
2023-05-13T10:47:40.585Z,22.60
2023-05-13T10:50:24.550Z,22.50
2023-05-13T10:52:56.592Z,22.40
2023-05-13T10:55:25.033Z,22.40
2023-05-13T10:58:11.965Z,22.40
2023-05-13T11:00:41.577Z,22.40
2023-05-13T11:03:31.549Z,22.30
2023-05-13T11:06:19.614Z,22.30
2023-05-13T11:08:53.585Z,22.20
2023-05-13T11:11:35.021Z,22.30
2023-05-13T11:14:15.986Z,22.30
2023-05-13T11:16:49.707Z,22.40
2023-05-13T11:19:23.501Z,22.40
2023-05-13T11:21:55.188Z,22.20
2023-05-13T11:24:23.810Z,22.20
2023-05-13T11:26:54.253Z,22.10
2023-05-13T11:29:33.635Z,22.30
2023-05-13T11:32:03.246Z,22.20
2023-05-13T11:34:33.705Z,22.30
2023-05-13T11:37:11.735Z,22.20
2023-05-13T11:39:42.320Z,22.30
2023-05-13T11:42:11.728Z,22.50
2023-05-13T11:44:47.719Z,22.70
2023-05-13T11:47:16.027Z,22.70
2023-05-13T11:49:45.742Z,22.80
2023-05-13T11:52:17.657Z,22.70
2023-05-13T11:54:48.477Z,22.70
2023-05-13T11:57:25.583Z,22.60
2023-05-13T11:59:59.073Z,22.60
2023-05-13T12:02:28.971Z,22.50
2023-05-13T12:05:01.218Z,22.70
2023-05-13T12:07:30.998Z,22.60
2023-05-13T12:10:01.226Z,22.70
2023-05-13T12:12:32.813Z,22.80
2023-05-13T12:15:03.276Z,23.00
2023-05-13T12:17:34.213Z,22.80
2023-05-13T12:20:13.940Z,22.80
2023-05-13T12:22:57.168Z,22.70
2023-05-13T12:25:51.284Z,22.60
2023-05-13T12:28:21.653Z,22.70
2023-05-13T12:30:56.336Z,22.70
2023-05-13T12:33:26.305Z,22.80
2023-05-13T12:35:55.762Z,22.90
2023-05-13T12:38:25.782Z,23.00
2023-05-13T12:40:55.186Z,22.90
2023-05-13T12:43:24.176Z,23.00
2023-05-13T12:45:55.274Z,22.80
2023-05-13T12:48:26.278Z,22.70
2023-05-13T12:50:54.510Z,22.80
2023-05-13T12:53:25.360Z,22.60
2023-05-13T12:55:54.894Z,22.70
2023-05-13T12:58:23.132Z,22.70
2023-05-13T13:00:51.617Z,22.80
2023-05-13T13:03:22.371Z,22.80
2023-05-13T13:05:55.342Z,22.90
2023-05-13T13:08:23.846Z,22.80
2023-05-13T13:10:52.670Z,22.80
2023-05-13T13:13:22.378Z,22.80
2023-05-13T13:15:50.640Z,22.60
2023-05-13T13:18:19.702Z,22.60
2023-05-13T13:20:48.466Z,22.60
2023-05-13T13:23:16.533Z,22.60
2023-05-13T13:25:45.115Z,22.50
2023-05-13T13:28:13.358Z,22.50
2023-05-13T13:30:46.545Z,22.50
2023-05-13T13:33:16.168Z,22.30
2023-05-13T13:35:45.885Z,22.20
2023-05-13T13:38:14.529Z,22.30
2023-05-13T13:40:42.776Z,22.40
2023-05-13T13:43:10.940Z,22.50
2023-05-13T13:45:39.141Z,22.50
2023-05-13T13:48:08.925Z,22.50
2023-05-13T13:50:39.859Z,22.60
2023-05-13T13:53:10.724Z,22.30
2023-05-13T13:55:38.896Z,22.30
2023-05-13T13:58:07.003Z,22.30
2023-05-13T14:00:35.272Z,22.30
2023-05-13T14:03:03.721Z,22.20
2023-05-13T14:05:33.638Z,22.20
2023-05-13T14:08:04.396Z,22.40
2023-05-13T14:10:32.742Z,22.20
2023-05-13T14:13:02.864Z,22.20
2023-05-13T14:15:31.840Z,22.20
2023-05-13T14:18:03.246Z,22.10
2023-05-13T14:20:34.494Z,22.00
2023-05-13T14:23:05.719Z,22.00
2023-05-13T14:25:34.233Z,22.00
2023-05-13T14:28:02.492Z,21.90
2023-05-13T14:30:30.907Z,21.90
2023-05-13T14:33:00.694Z,21.90
2023-05-13T14:35:29.240Z,21.90
2023-05-13T14:37:58.796Z,22.00
2023-05-13T14:40:26.877Z,22.00
2023-05-13T14:42:54.889Z,22.00
2023-05-13T14:45:23.325Z,22.10
2023-05-13T14:47:54.118Z,22.10
2023-05-13T14:50:23.025Z,22.00
2023-05-13T14:52:51.684Z,22.00
2023-05-13T14:55:21.478Z,21.80
2023-05-13T14:57:50.037Z,21.70
2023-05-13T15:00:18.814Z,21.70
2023-05-13T15:02:47.175Z,21.50
2023-05-13T15:05:15.966Z,21.50
2023-05-13T15:07:44.137Z,21.60
2023-05-13T15:10:12.918Z,21.70
2023-05-13T15:12:42.881Z,21.60
2023-05-13T15:15:12.572Z,21.70
2023-05-13T15:17:40.783Z,21.70
2023-05-13T15:20:12.387Z,21.60
2023-05-13T15:22:40.732Z,21.60
2023-05-13T15:25:09.713Z,21.60
2023-05-13T15:27:37.947Z,21.50
2023-05-13T15:30:09.483Z,21.30
2023-05-13T15:32:37.721Z,21.30
2023-05-13T15:35:06.636Z,21.40
2023-05-13T15:37:34.916Z,21.40
2023-05-13T15:40:03.503Z,21.40
2023-05-13T15:42:40.889Z,21.50
2023-05-13T15:45:11.430Z,21.70
2023-05-13T15:47:39.764Z,21.80
2023-05-13T15:50:09.205Z,21.80
2023-05-13T15:52:37.378Z,21.70
2023-05-13T15:55:06.599Z,21.70
2023-05-13T15:57:34.834Z,21.70
2023-05-13T16:00:03.074Z,21.60
2023-05-13T16:02:37.579Z,21.60
2023-05-13T16:05:06.416Z,21.50
2023-05-13T16:07:37.669Z,21.40
2023-05-13T16:10:07.417Z,21.60
2023-05-13T16:12:36.024Z,21.60
2023-05-13T16:15:04.688Z,21.70
2023-05-13T16:17:35.837Z,21.60
2023-05-13T16:20:04.423Z,21.70
2023-05-13T16:22:34.810Z,21.70
2023-05-13T16:25:04.795Z,21.70
2023-05-13T16:27:33.707Z,21.60
2023-05-13T16:30:02.884Z,21.60
2023-05-13T16:32:31.514Z,21.70
2023-05-13T16:35:01.519Z,21.70
2023-05-13T16:37:29.797Z,21.60
2023-05-13T16:39:58.060Z,21.50
2023-05-13T16:42:26.595Z,21.40
2023-05-13T16:44:54.716Z,21.40
2023-05-13T16:47:23.013Z,21.20
2023-05-13T16:49:51.167Z,21.20
2023-05-13T16:52:20.766Z,21.40
2023-05-13T16:54:48.896Z,21.30
2023-05-13T16:57:17.423Z,21.00
2023-05-13T16:59:45.527Z,20.90
2023-05-13T17:02:13.711Z,21.00
2023-05-13T17:04:42.077Z,20.80
2023-05-13T17:07:11.230Z,20.70
2023-05-13T17:09:40.944Z,20.60
2023-05-13T17:12:09.617Z,20.70
2023-05-13T17:14:37.834Z,20.50
2023-05-13T17:17:06.658Z,20.40
2023-05-13T17:19:35.175Z,20.40
2023-05-13T17:22:03.390Z,20.30
2023-05-13T17:24:34.998Z,20.30
2023-05-13T17:27:04.949Z,20.10
2023-05-13T17:29:33.456Z,20.10
2023-05-13T17:32:01.781Z,19.90
2023-05-13T17:34:30.013Z,19.80
2023-05-13T17:36:58.324Z,19.80
2023-05-13T17:39:26.507Z,19.60
2023-05-13T17:41:55.460Z,19.60
2023-05-13T17:44:24.930Z,19.60
2023-05-13T17:46:53.093Z,19.50
2023-05-13T17:49:21.379Z,19.30
2023-05-13T17:51:49.833Z,19.20
2023-05-13T17:54:17.857Z,19.10
2023-05-13T17:56:46.091Z,19.20
2023-05-13T17:59:14.242Z,19.20
2023-05-13T18:01:44.057Z,19.00
2023-05-13T18:04:12.156Z,18.90
2023-05-13T18:06:40.351Z,18.80
2023-05-13T18:09:09.399Z,18.80
2023-05-13T18:11:37.584Z,18.70
2023-05-13T18:14:06.940Z,18.70
2023-05-13T18:16:38.604Z,18.60
2023-05-13T18:19:08.482Z,18.50
2023-05-13T18:21:36.695Z,18.20
2023-05-13T18:24:05.185Z,18.30
2023-05-13T18:26:36.105Z,18.10
2023-05-13T18:29:04.304Z,18.20
2023-05-13T18:31:34.935Z,18.00
2023-05-13T18:34:04.210Z,18.00
2023-05-13T18:36:33.919Z,17.80
2023-05-13T18:39:02.186Z,17.70
2023-05-13T18:41:30.452Z,17.70
2023-05-13T18:43:58.827Z,17.70
2023-05-13T18:46:42.482Z,17.60
2023-05-13T18:49:13.252Z,17.50
2023-05-13T18:51:45.296Z,17.40
2023-05-13T18:54:17.108Z,17.40
2023-05-13T18:56:45.846Z,17.30
2023-05-13T18:59:14.420Z,17.20
2023-05-13T19:01:43.403Z,17.20
2023-05-13T19:04:12.527Z,17.10
2023-05-13T19:06:42.620Z,17.00
2023-05-13T19:09:12.807Z,17.00
2023-05-13T19:11:41.159Z,16.90
2023-05-13T19:14:09.406Z,16.70
2023-05-13T19:16:37.782Z,16.70
2023-05-13T19:19:06.394Z,16.80
2023-05-13T19:21:35.064Z,16.80
2023-05-13T19:24:04.918Z,16.60
2023-05-13T19:26:33.436Z,16.70
2023-05-13T19:29:01.625Z,16.60
2023-05-13T19:31:31.563Z,16.60
2023-05-13T19:34:01.275Z,16.40
2023-05-13T19:36:31.515Z,16.50
2023-05-13T19:39:06.990Z,16.50
2023-05-13T19:41:38.036Z,16.50
2023-05-13T19:44:08.530Z,16.70
2023-05-13T19:46:44.544Z,16.50
2023-05-13T19:49:13.238Z,16.40
2023-05-13T19:51:58.080Z,16.40
2023-05-13T19:54:27.903Z,16.30
2023-05-13T19:56:58.116Z,16.30
2023-05-13T19:59:26.416Z,16.30
2023-05-13T20:01:54.995Z,16.20
2023-05-13T20:04:23.393Z,16.20
2023-05-13T20:06:51.888Z,16.10
2023-05-13T20:09:22.005Z,16.10
2023-05-13T20:11:53.073Z,16.30
2023-05-13T20:14:25.223Z,16.20
2023-05-13T20:17:00.754Z,16.20
2023-05-13T20:19:47.028Z,16.30
2023-05-13T20:22:19.737Z,16.20
2023-05-13T20:24:53.125Z,16.10
2023-05-13T20:27:22.816Z,16.10
2023-05-13T20:29:57.283Z,16.10
2023-05-13T20:32:25.730Z,16.00
2023-05-13T20:34:57.410Z,15.90
2023-05-13T20:37:26.027Z,15.90
2023-05-13T20:39:57.648Z,15.80
2023-05-13T20:42:26.140Z,15.90
2023-05-13T20:44:56.194Z,15.80
2023-05-13T20:47:24.691Z,15.80
2023-05-13T20:49:52.985Z,15.70
2023-05-13T20:52:23.557Z,15.60
2023-05-13T20:54:51.862Z,15.70
2023-05-13T20:57:20.202Z,15.60
2023-05-13T20:59:51.550Z,15.70
2023-05-13T21:02:21.494Z,15.50
2023-05-13T21:04:50.014Z,15.30
2023-05-13T21:07:18.610Z,15.50
2023-05-13T21:09:47.040Z,15.50
2023-05-13T21:12:21.071Z,15.60
2023-05-13T21:14:52.306Z,15.00
2023-05-13T21:17:23.964Z,15.30
2023-05-13T21:19:52.706Z,15.40
2023-05-13T21:22:21.323Z,15.30
2023-05-13T21:24:50.855Z,15.30
2023-05-13T21:27:22.070Z,15.20
2023-05-13T21:29:50.660Z,15.20
2023-05-13T21:32:21.228Z,15.20
2023-05-13T21:34:53.309Z,15.10
2023-05-13T21:37:27.164Z,15.20
2023-05-13T21:39:55.627Z,15.10
2023-05-13T21:42:27.241Z,15.20
2023-05-13T21:44:57.352Z,15.20
2023-05-13T21:47:25.883Z,15.00
2023-05-13T21:49:58.699Z,14.90
2023-05-13T21:52:26.981Z,14.80
2023-05-13T21:54:55.519Z,14.80
2023-05-13T21:57:23.939Z,14.80
2023-05-13T21:59:52.253Z,14.70
2023-05-13T22:02:20.970Z,14.60
2023-05-13T22:04:51.359Z,14.70
2023-05-13T22:07:27.024Z,14.50
2023-05-13T22:09:55.577Z,14.70
2023-05-13T22:12:24.042Z,14.40
2023-05-13T22:14:53.302Z,14.40
2023-05-13T22:17:22.596Z,14.40
2023-05-13T22:19:51.880Z,14.40
2023-05-13T22:22:23.027Z,14.40
2023-05-13T22:24:51.786Z,14.60
2023-05-13T22:27:20.317Z,14.40
2023-05-13T22:29:48.451Z,14.30
2023-05-13T22:32:16.757Z,14.30
2023-05-13T22:34:45.129Z,14.10
2023-05-13T22:37:13.504Z,14.20
2023-05-13T22:39:43.287Z,14.10
2023-05-13T22:42:11.623Z,14.20
2023-05-13T22:44:40.206Z,14.10
2023-05-13T22:47:09.167Z,13.90
2023-05-13T22:49:37.428Z,14.20
2023-05-13T22:52:09.099Z,14.70
2023-05-13T22:54:40.372Z,14.10
2023-05-13T22:57:10.779Z,14.30
2023-05-13T22:59:40.474Z,14.00
2023-05-13T23:02:12.036Z,14.10
2023-05-13T23:04:42.564Z,13.90
2023-05-13T23:07:11.041Z,14.00
2023-05-13T23:09:39.261Z,14.20
2023-05-13T23:12:09.932Z,13.90
2023-05-13T23:14:40.511Z,13.90
2023-05-13T23:17:09.317Z,14.50
2023-05-13T23:19:41.073Z,13.80
2023-05-13T23:22:09.313Z,13.70
2023-05-13T23:24:37.752Z,13.90
2023-05-13T23:27:06.292Z,13.70
2023-05-13T23:29:40.780Z,13.70
2023-05-13T23:32:09.506Z,13.70
2023-05-13T23:34:37.918Z,13.70
2023-05-13T23:37:06.380Z,13.80
2023-05-13T23:39:36.841Z,13.80
2023-05-13T23:42:05.572Z,13.70
2023-05-13T23:44:39.995Z,13.60
2023-05-13T23:47:09.016Z,13.60
2023-05-13T23:49:37.231Z,13.70
2023-05-13T23:52:07.231Z,13.60
2023-05-13T23:54:35.992Z,13.60
2023-05-13T23:57:04.512Z,13.70
2023-05-13T23:59:33.010Z,13.60
